Time;durP1;ratioP1;P1;durP2;ratioP2;P2;SDS_P1;SDS_P2;PMS_P1;PMS_P2;Temp;Humidity;BMP_temperature;BMP_pressure;BME280_temperature;BME280_humidity;BME280_pressure;Samples;Min_cycle;Max_cycle;Signal;HPM_P1;HPM_P2
2021/01/20 00:00:06;;;;;;;1.10;1.00;;;;;;;3.26;74.07;98264.06;4904705;28;103123;-77
2021/01/20 00:02:33;;;;;;;1.40;1.10;;;;;;;3.25;74.25;98259.78;4904469;28;103283;-79
2021/01/20 00:05:00;;;;;;;1.57;1.20;;;;;;;3.26;74.01;98257.97;4903994;28;104933;-79
2021/01/20 00:07:27;;;;;;;2.83;1.30;;;;;;;3.19;74.96;98248.78;4903984;28;103111;-79
2021/01/20 00:09:55;;;;;;;1.40;0.93;;;;;;;3.21;75.10;98244.31;4904069;28;102728;-78
2021/01/20 00:12:22;;;;;;;2.47;1.43;;;;;;;3.14;75.22;98243.81;4903144;28;104886;-77
2021/01/20 00:14:49;;;;;;;1.63;1.33;;;;;;;2.97;75.25;98248.16;4903856;28;104165;-77
2021/01/20 00:17:16;;;;;;;2.00;1.30;;;;;;;2.81;75.83;98248.88;4904402;28;103242;-78
2021/01/20 00:19:43;;;;;;;1.20;0.97;;;;;;;2.91;76.56;98252.75;4904611;28;103886;-77
2021/01/20 00:22:11;;;;;;;3.30;1.70;;;;;;;2.99;76.38;98248.91;4904498;28;103188;-80
2021/01/20 00:24:39;;;;;;;2.23;1.40;;;;;;;3.06;76.02;98250.31;4899885;28;105359;-80
2021/01/20 00:27:08;;;;;;;2.23;1.60;;;;;;;3.13;76.18;98246.47;4903481;28;103200;-80
2021/01/20 00:29:36;;;;;;;1.73;1.37;;;;;;;3.19;75.96;98240.94;4902665;28;102764;-79
2021/01/20 00:32:04;;;;;;;2.47;1.30;;;;;;;3.18;76.37;98232.28;4902467;28;104874;-79
2021/01/20 00:34:31;;;;;;;2.00;1.37;;;;;;;3.23;76.13;98238.09;4904648;28;108021;-80
2021/01/20 00:36:58;;;;;;;1.50;1.30;;;;;;;3.30;76.07;98233.44;4902620;28;102690;-80
2021/01/20 00:39:25;;;;;;;2.00;1.30;;;;;;;3.37;75.71;98230.41;4902813;28;103084;-79
2021/01/20 00:41:52;;;;;;;1.87;1.43;;;;;;;3.43;75.93;98237.09;4902991;28;103662;-80
2021/01/20 00:44:20;;;;;;;2.40;1.40;;;;;;;3.41;76.03;98236.34;4902689;28;103131;-79
2021/01/20 00:46:47;;;;;;;1.50;1.20;;;;;;;3.46;75.80;98236.94;4903140;28;103273;-80
2021/01/20 00:49:15;;;;;;;1.37;1.10;;;;;;;3.41;76.42;98236.34;4902852;28;103828;-79
2021/01/20 00:51:41;;;;;;;1.50;1.30;;;;;;;3.42;76.67;98224.97;4901254;28;111007;-77
2021/01/20 00:54:09;;;;;;;1.50;1.10;;;;;;;3.44;76.23;98230.97;4903453;28;104108;-77
2021/01/20 00:56:36;;;;;;;1.50;1.10;;;;;;;3.46;76.68;98221.28;4903863;28;103522;-78
2021/01/20 00:59:03;;;;;;;1.60;1.30;;;;;;;3.49;76.93;98223.72;4904119;28;103371;-80
2021/01/20 01:01:31;;;;;;;1.57;1.47;;;;;;;3.54;76.65;98220.91;4885229;28;107656;-80
2021/01/20 01:03:59;;;;;;;2.87;1.40;;;;;;;3.53;76.89;98222.66;4903730;28;105760;-79
2021/01/20 01:06:26;;;;;;;2.60;1.30;;;;;;;3.55;76.84;98219.97;4902197;28;103134;-80
2021/01/20 01:08:58;;;;;;;1.87;1.20;;;;;;;3.57;77.08;98220.72;4901711;28;103116;-79
2021/01/20 01:11:25;;;;;;;2.00;1.27;;;;;;;3.56;77.03;98217.28;4902349;28;104265;-79
2021/01/20 01:13:56;;;;;;;1.97;1.43;;;;;;;3.60;77.12;98213.56;4894093;28;107022;-79
2021/01/20 01:16:56;;;;;;;1.40;1.30;;;;;;;3.60;77.37;98216.19;4885241;28;103061;-79
2021/01/20 01:19:35;;;;;;;1.40;1.27;;;;;;;3.61;76.71;98211.81;4887089;28;103478;-79
2021/01/20 01:22:03;;;;;;;1.80;1.40;;;;;;;3.64;76.92;98203.81;4902116;28;103880;-80
2021/01/20 01:24:34;;;;;;;1.97;1.37;;;;;;;3.62;77.21;98206.50;4883388;28;107741;-79
2021/01/20 01:27:01;;;;;;;1.43;1.10;;;;;;;3.60;77.48;98205.72;4899646;28;103445;-80
2021/01/20 01:29:28;;;;;;;1.87;1.77;;;;;;;3.55;77.57;98207.75;4900975;28;102685;-79
2021/01/20 01:32:02;;;;;;;1.53;1.43;;;;;;;3.56;77.67;98199.00;4884387;28;106571;-79
2021/01/20 01:34:29;;;;;;;1.90;1.70;;;;;;;3.49;77.90;98197.59;4899334;28;110554;-79
2021/01/20 01:37:01;;;;;;;2.10;1.43;;;;;;;3.50;78.36;98192.31;4901312;28;103073;-80
2021/01/20 01:40:01;;;;;;;1.90;1.50;;;;;;;3.55;78.07;98196.44;4890119;28;103704;-79
2021/01/20 01:42:31;;;;;;;1.30;1.03;;;;;;;3.48;78.44;98185.50;4901487;28;106754;-80
2021/01/20 01:44:58;;;;;;;1.23;1.10;;;;;;;3.49;78.48;98182.78;4901930;28;103794;-80
2021/01/20 01:47:26;;;;;;;2.33;1.40;;;;;;;3.46;78.48;98182.09;4903187;28;102923;-79
2021/01/20 01:50:00;;;;;;;1.90;1.33;;;;;;;3.51;78.53;98190.53;4901726;28;103008;-79
2021/01/20 01:52:29;;;;;;;1.33;0.90;;;;;;;3.50;78.05;98184.50;4898171;28;106995;-80
2021/01/20 01:55:23;;;;;;;1.00;0.73;;;;;;;3.53;78.59;98177.41;4884851;28;103137;-79
2021/01/20 01:58:13;;;;;;;1.27;1.17;;;;;;;3.48;78.55;98175.88;4894725;28;102819;-79
2021/01/20 02:00:45;;;;;;;1.77;1.60;;;;;;;3.51;78.76;98169.63;4883070;28;102819;-80
2021/01/20 02:03:23;;;;;;;1.70;1.30;;;;;;;3.56;78.51;98166.81;4900515;28;105919;-79
2021/01/20 02:05:51;;;;;;;1.43;1.10;;;;;;;3.55;78.48;98168.56;4897876;28;107131;-80
2021/01/20 02:08:21;;;;;;;1.93;1.20;;;;;;;3.56;79.05;98165.03;4904289;28;104524;-78
2021/01/20 02:11:11;;;;;;;1.50;1.40;;;;;;;3.59;78.68;98159.66;4889181;28;102696;-77
2021/01/20 02:13:47;;;;;;;1.33;1.23;;;;;;;3.58;79.09;98154.50;4903998;28;104061;-78
2021/01/20 02:16:55;;;;;;;1.17;0.90;;;;;;;3.57;79.04;98156.25;4850689;28;103866;-77
2021/01/20 02:19:50;;;;;;;2.00;1.20;;;;;;;3.61;78.85;98155.19;4888410;28;102956;-77
2021/01/20 02:22:27;;;;;;;1.50;1.10;;;;;;;3.58;78.40;98155.34;4903887;28;103036;-77
2021/01/20 02:25:22;;;;;;;2.07;1.40;;;;;;;3.59;79.20;98157.03;4903474;28;104260;-77
2021/01/20 02:28:08;;;;;;;1.63;1.37;;;;;;;3.58;79.45;98154.50;4886869;28;106533;-77
2021/01/20 02:30:52;;;;;;;1.57;1.30;;;;;;;3.51;79.00;98153.97;4905180;28;103113;-77
2021/01/20 02:33:27;;;;;;;1.40;1.07;;;;;;;3.47;79.33;98160.28;4904409;28;103036;-75
2021/01/20 02:36:04;;;;;;;1.37;1.27;;;;;;;3.22;80.46;98162.47;4887979;28;107092;-77
2021/01/20 02:38:44;;;;;;;1.43;1.27;;;;;;;3.13;80.66;98168.16;4903486;28;104820;-77
2021/01/20 02:41:23;;;;;;;1.50;1.20;;;;;;;3.09;80.77;98162.25;4898126;28;103280;-77
2021/01/20 02:44:08;;;;;;;1.27;1.10;;;;;;;3.16;80.71;98162.78;4904938;28;102839;-76
2021/01/20 02:46:37;;;;;;;3.23;1.40;;;;;;;3.04;81.49;98152.97;4902975;28;103205;-77
2021/01/20 02:49:13;;;;;;;2.07;1.40;;;;;;;2.99;81.99;98160.19;4903933;28;103859;-77
2021/01/20 02:51:48;;;;;;;1.80;1.40;;;;;;;3.05;81.34;98152.06;4904874;28;102672;-77
2021/01/20 02:54:35;;;;;;;2.13;1.30;;;;;;;2.92;82.48;98147.44;4903500;28;102666;-77
2021/01/20 02:57:21;;;;;;;1.87;1.33;;;;;;;2.98;82.25;98148.91;4905115;28;103943;-78
2021/01/20 02:59:59;;;;;;;1.53;1.27;;;;;;;3.14;81.16;98159.41;4919724;28;103169;-78
2021/01/20 03:02:51;;;;;;;1.50;1.10;;;;;;;3.11;81.36;98149.13;4900688;28;105810;-78
2021/01/20 03:05:19;;;;;;;1.20;1.00;;;;;;;3.11;81.17;98156.97;4906087;28;102874;-78
2021/01/20 03:07:46;;;;;;;1.20;1.10;;;;;;;3.06;81.28;98146.75;4904217;28;104055;-77
2021/01/20 03:10:14;;;;;;;1.17;1.07;;;;;;;3.01;82.13;98145.28;4905247;28;104305;-77
2021/01/20 03:12:43;;;;;;;1.80;1.40;;;;;;;3.07;80.91;98139.75;4902952;28;104139;-78
2021/01/20 03:15:18;;;;;;;1.20;1.10;;;;;;;3.01;81.55;98140.91;4904221;28;102964;-77
2021/01/20 03:17:45;;;;;;;1.20;0.90;;;;;;;3.07;81.23;98143.22;4902858;28;105008;-79
2021/01/20 03:20:13;;;;;;;1.00;0.90;;;;;;;2.96;81.95;98145.53;4905546;28;104253;-79
2021/01/20 03:22:40;;;;;;;2.20;1.33;;;;;;;2.85;82.55;98133.03;4906204;28;102870;-78
2021/01/20 03:25:09;;;;;;;1.93;1.20;;;;;;;2.84;82.83;98136.56;4902741;28;103133;-79
2021/01/20 03:27:35;;;;;;;1.37;1.10;;;;;;;2.80;82.44;98135.03;4903696;28;104229;-80
2021/01/20 03:30:04;;;;;;;1.77;1.37;;;;;;;2.77;82.84;98140.41;4903900;28;103735;-79
2021/01/20 03:32:31;;;;;;;2.77;1.70;;;;;;;2.75;83.00;98134.41;4902531;28;103993;-79
2021/01/20 03:34:58;;;;;;;1.37;1.10;;;;;;;2.86;82.72;98134.69;4904624;28;102937;-79
2021/01/20 03:37:26;;;;;;;0.80;0.73;;;;;;;2.90;82.74;98140.63;4901464;28;105353;-79
2021/01/20 03:39:53;;;;;;;1.43;1.00;;;;;;;2.88;83.12;98129.41;4902726;28;106507;-79
2021/01/20 03:42:20;;;;;;;1.20;0.97;;;;;;;2.88;82.93;98127.66;4904497;28;103132;-79
2021/01/20 03:44:47;;;;;;;1.90;1.20;;;;;;;2.94;82.86;98116.06;4902081;28;103647;-79
2021/01/20 03:47:14;;;;;;;1.70;1.30;;;;;;;3.02;82.54;98113.06;4901067;28;106343;-78
2021/01/20 03:49:41;;;;;;;1.93;1.20;;;;;;;3.12;81.55;98115.13;4903794;28;105296;-79
2021/01/20 03:52:08;;;;;;;1.33;1.20;;;;;;;3.13;82.06;98115.97;4905618;28;102530;-78
2021/01/20 03:54:36;;;;;;;1.30;1.00;;;;;;;3.16;81.34;98116.66;4903290;28;103135;-78
2021/01/20 03:57:03;;;;;;;2.07;1.10;;;;;;;3.20;81.51;98112.13;4902750;28;104594;-78
2021/01/20 03:59:31;;;;;;;2.17;1.50;;;;;;;3.25;81.56;98110.13;4901931;28;104382;-78
2021/01/20 04:01:58;;;;;;;1.80;1.30;;;;;;;3.23;81.51;98114.59;4902819;28;103471;-78
2021/01/20 04:04:25;;;;;;;2.07;1.30;;;;;;;3.27;81.15;98105.66;4904081;28;103180;-76
2021/01/20 04:06:53;;;;;;;1.73;1.30;;;;;;;3.18;81.75;98095.69;4903532;28;103759;-78
2021/01/20 04:09:20;;;;;;;2.13;1.30;;;;;;;3.28;81.60;98104.72;4903209;28;103806;-79
2021/01/20 04:11:48;;;;;;;1.20;1.00;;;;;;;3.33;81.19;98098.34;4904169;28;103122;-71
2021/01/20 04:14:15;;;;;;;1.30;1.20;;;;;;;3.34;80.93;98104.41;4902853;28;102816;-72
2021/01/20 04:16:42;;;;;;;2.00;1.10;;;;;;;3.35;81.27;98101.72;4903659;28;103994;-74
2021/01/20 04:19:10;;;;;;;1.30;1.20;;;;;;;3.35;80.78;98095.63;4904743;28;104200;-75
2021/01/20 04:21:37;;;;;;;1.43;1.10;;;;;;;3.41;81.28;98095.31;4897403;28;103884;-75
2021/01/20 04:24:05;;;;;;;2.07;1.67;;;;;;;3.40;81.40;98091.00;4911560;28;103115;-75
2021/01/20 04:26:32;;;;;;;1.53;1.10;;;;;;;3.37;81.11;98088.56;4913047;28;104017;-75
2021/01/20 04:29:00;;;;;;;1.57;1.30;;;;;;;3.33;81.17;98087.91;4919379;28;103985;-78
2021/01/20 04:31:27;;;;;;;1.83;1.27;;;;;;;3.28;81.36;98079.47;4921320;28;102871;-79
2021/01/20 04:33:54;;;;;;;1.70;1.07;;;;;;;3.26;81.60;98085.69;4923292;28;102765;-78
2021/01/20 04:36:21;;;;;;;1.50;1.30;;;;;;;3.24;81.86;98082.31;4923506;28;103927;-75
2021/01/20 04:38:48;;;;;;;1.30;1.20;;;;;;;3.19;82.25;98079.09;4921496;28;103756;-76
2021/01/20 04:41:15;;;;;;;1.50;1.20;;;;;;;3.20;81.93;98081.63;4923236;28;103064;-76
2021/01/20 04:43:42;;;;;;;1.60;1.50;;;;;;;3.16;82.49;98074.03;4922159;28;102854;-75
2021/01/20 04:46:12;;;;;;;1.27;1.10;;;;;;;3.18;82.12;98073.03;4914781;28;109322;-74
2021/01/20 04:48:43;;;;;;;1.87;1.37;;;;;;;3.16;82.72;98071.44;4921929;28;106004;-75
2021/01/20 04:51:12;;;;;;;1.37;1.00;;;;;;;3.24;82.59;98066.66;4920591;28;102932;-87
2021/01/20 04:53:40;;;;;;;2.03;1.43;;;;;;;3.25;81.76;98071.81;4922462;28;103458;-87
2021/01/20 04:56:12;;;;;;;1.60;1.13;;;;;;;3.20;82.18;98062.53;4923565;28;103046;-87
2021/01/20 04:58:39;;;;;;;1.73;1.00;;;;;;;3.27;81.89;98067.34;4923102;28;104215;-87
2021/01/20 05:01:06;;;;;;;1.60;1.27;;;;;;;3.29;81.66;98064.63;4923417;28;103236;-89
2021/01/20 05:03:35;;;;;;;1.30;1.07;;;;;;;3.29;81.67;98072.47;4923107;28;103247;-87
2021/01/20 05:06:03;;;;;;;1.50;1.40;;;;;;;3.30;81.92;98066.31;4921826;28;105034;-89
2021/01/20 05:08:30;;;;;;;1.73;1.30;;;;;;;3.35;81.25;98069.53;4921345;28;104048;-89
2021/01/20 05:10:57;;;;;;;1.70;1.40;;;;;;;3.35;81.35;98056.47;4924706;28;103512;-87
2021/01/20 05:13:25;;;;;;;1.50;1.10;;;;;;;3.43;81.20;98069.97;4922660;28;103323;-86
2021/01/20 05:15:52;;;;;;;1.67;1.40;;;;;;;3.38;81.30;98058.94;4921880;28;103479;-86
2021/01/20 05:18:20;;;;;;;1.33;1.10;;;;;;;3.48;80.67;98062.75;4924280;28;104464;-88
2021/01/20 05:20:48;;;;;;;1.53;1.30;;;;;;;3.49;80.71;98067.03;4922689;28;102733;-86
2021/01/20 05:23:15;;;;;;;1.37;1.17;;;;;;;3.57;80.15;98064.84;4919624;28;103009;-78
2021/01/20 05:25:44;;;;;;;1.67;1.53;;;;;;;3.61;80.19;98061.16;4917597;28;106462;-78
2021/01/20 05:28:19;;;;;;;1.70;1.17;;;;;;;3.63;79.64;98063.66;4921751;28;103084;-79
2021/01/20 05:30:48;;;;;;;3.00;1.30;;;;;;;3.63;80.08;98061.91;4921382;28;102808;-78
2021/01/20 05:33:17;;;;;;;1.20;1.10;;;;;;;3.59;80.17;98063.00;4922493;28;103065;-77
2021/01/20 05:35:45;;;;;;;1.93;1.20;;;;;;;3.55;80.67;98065.84;4921467;28;104056;-78
2021/01/20 05:38:14;;;;;;;1.43;1.20;;;;;;;3.58;80.46;98066.53;4920319;28;103731;-75
2021/01/20 05:40:42;;;;;;;1.57;1.27;;;;;;;3.60;80.28;98064.69;4917436;28;103281;-77
2021/01/20 05:43:09;;;;;;;3.53;1.30;;;;;;;3.60;80.85;98069.06;4921746;28;103001;-77
2021/01/20 05:45:45;;;;;;;2.03;1.30;;;;;;;3.65;80.03;98057.44;4919519;28;103977;-77
2021/01/20 05:48:12;;;;;;;1.30;1.20;;;;;;;3.67;80.21;98063.44;4921333;28;104367;-76
2021/01/20 05:50:57;;;;;;;2.43;1.13;;;;;;;3.68;80.48;98059.88;4922049;28;103055;-76
2021/01/20 05:53:25;;;;;;;1.67;1.40;;;;;;;3.58;80.85;98056.09;4920680;28;104315;-76
2021/01/20 05:56:03;;;;;;;2.77;1.80;;;;;;;3.53;81.33;98052.03;4917994;28;104488;-75
2021/01/20 05:58:40;;;;;;;1.63;1.33;;;;;;;3.54;81.52;98049.34;4921673;28;103218;-76
2021/01/20 06:01:08;;;;;;;2.00;1.60;;;;;;;3.45;81.50;98048.06;4913466;28;103691;-75
2021/01/20 06:03:36;;;;;;;1.30;1.03;;;;;;;3.51;80.98;98054.72;4921556;28;103144;-75
2021/01/20 06:06:06;;;;;;;2.10;1.40;;;;;;;3.55;80.48;98055.41;4919736;28;104215;-80
2021/01/20 06:08:36;;;;;;;1.67;1.50;;;;;;;3.47;81.81;98048.00;4919626;28;105199;-81
2021/01/20 06:11:04;;;;;;;1.87;1.40;;;;;;;3.48;81.39;98050.50;4922648;28;102691;-89
2021/01/20 06:13:32;;;;;;;1.20;1.10;;;;;;;3.66;79.56;98043.44;4907694;28;103257;-85
2021/01/20 06:16:05;;;;;;;1.80;1.57;;;;;;;3.77;79.28;98043.69;4904684;28;105519;-84
2021/01/20 06:18:36;;;;;;;1.47;1.13;;;;;;;3.91;77.42;98038.56;4904608;28;106942;-86
2021/01/20 06:21:04;;;;;;;2.27;1.60;;;;;;;4.01;76.72;98036.28;4922498;28;102601;-84
2021/01/20 06:23:37;;;;;;;1.73;1.40;;;;;;;4.10;76.38;98038.34;4921951;28;103048;-84
2021/01/20 06:26:10;;;;;;;1.33;1.23;;;;;;;4.19;76.60;98048.28;4918257;28;103773;-82
2021/01/20 06:28:40;;;;;;;2.37;1.00;;;;;;;4.30;75.54;98042.44;4920263;28;104130;-83
2021/01/20 06:31:08;;;;;;;1.20;1.10;;;;;;;4.34;74.97;98046.59;4920143;28;102659;-81
2021/01/20 06:33:37;;;;;;;2.17;1.30;;;;;;;4.39;74.61;98044.53;4913042;28;103755;-85
2021/01/20 06:36:05;;;;;;;1.80;1.50;;;;;;;4.39;75.18;98039.31;4920256;28;106946;-82
2021/01/20 06:38:39;;;;;;;1.43;1.33;;;;;;;4.44;74.83;98043.34;4918699;28;106030;-84
2021/01/20 06:41:09;;;;;;;1.60;1.30;;;;;;;4.45;74.46;98042.41;4918522;28;103086;-82
2021/01/20 06:43:42;;;;;;;1.30;1.17;;;;;;;4.45;74.37;98037.19;4921921;28;103265;-81
2021/01/20 06:46:28;;;;;;;1.97;1.43;;;;;;;4.49;73.82;98041.28;4921202;28;104208;-82
2021/01/20 06:49:12;;;;;;;1.70;1.20;;;;;;;4.51;74.16;98038.59;4905042;28;105800;-81
2021/01/20 06:51:42;;;;;;;2.83;1.37;;;;;;;4.54;74.11;98043.66;4920392;28;103056;-82
2021/01/20 06:54:13;;;;;;;1.63;1.17;;;;;;;4.63;73.22;98043.13;4921652;28;103003;-82
2021/01/20 06:56:42;;;;;;;2.53;1.20;;;;;;;4.66;73.63;98037.69;4939167;28;103907;-82
2021/01/20 06:59:18;;;;;;;1.40;1.20;;;;;;;4.63;73.24;98037.91;4923611;28;106562;-83
2021/01/20 07:02:09;;;;;;;2.33;1.40;;;;;;;4.69;72.59;98038.34;4924461;28;103153;-84
2021/01/20 07:05:05;;;;;;;2.47;1.10;;;;;;;4.74;72.59;98035.50;4916702;28;103650;-83
2021/01/20 07:07:54;;;;;;;1.97;1.20;;;;;;;4.78;72.60;98036.97;4923072;28;103439;-84
2021/01/20 07:10:24;;;;;;;3.17;1.53;;;;;;;4.75;72.53;98031.91;4907077;28;107381;-83
2021/01/20 07:13:17;;;;;;;1.47;1.17;;;;;;;4.77;72.70;98035.31;4923400;28;103100;-83
2021/01/20 07:15:47;;;;;;;2.90;1.60;;;;;;;4.69;73.72;98032.28;4924313;28;103106;-83
2021/01/20 07:18:16;;;;;;;3.70;1.60;;;;;;;4.59;73.38;98032.00;4925491;28;103713;-82
2021/01/20 07:20:45;;;;;;;2.97;1.80;;;;;;;4.49;74.44;98037.84;4924031;28;103908;-84
2021/01/20 07:23:12;;;;;;;2.73;1.47;;;;;;;4.54;74.86;98033.19;4923640;28;103167;-82
2021/01/20 07:25:40;;;;;;;4.00;1.67;;;;;;;4.43;75.70;98027.75;4922752;28;102965;-83
2021/01/20 07:28:08;;;;;;;2.83;1.90;;;;;;;4.33;75.85;98026.56;4923001;28;103755;-84
2021/01/20 07:30:35;;;;;;;6.50;2.50;;;;;;;4.05;76.82;98028.16;4922617;28;104372;-84
2021/01/20 07:33:14;;;;;;;4.37;2.73;;;;;;;3.90;77.60;98020.34;4894584;28;103849;-84
2021/01/20 07:35:42;;;;;;;4.07;2.63;;;;;;;3.83;78.28;98019.84;4922990;28;103713;-82
2021/01/20 07:38:10;;;;;;;3.60;2.67;;;;;;;3.73;78.39;98023.06;4906880;28;106847;-83
2021/01/20 07:40:39;;;;;;;3.93;3.13;;;;;;;3.71;78.77;98019.66;4923413;28;105437;-83
2021/01/20 07:43:19;;;;;;;4.87;2.87;;;;;;;3.85;77.58;98019.75;4920888;28;102674;-85
2021/01/20 07:45:47;;;;;;;5.87;3.43;;;;;;;3.84;77.78;98024.16;4903403;28;103283;-86
2021/01/20 07:48:14;;;;;;;5.60;3.00;;;;;;;3.84;77.93;98010.25;4917966;28;107264;-83
2021/01/20 07:50:49;;;;;;;4.50;2.80;;;;;;;3.90;77.49;98012.53;4916818;28;103189;-84
2021/01/20 07:53:18;;;;;;;3.43;2.60;;;;;;;3.77;77.89;98008.88;4903248;28;102659;-82
2021/01/20 07:55:47;;;;;;;3.97;3.00;;;;;;;3.83;77.68;98019.84;4916775;28;103271;-85
2021/01/20 07:58:15;;;;;;;4.27;2.80;;;;;;;3.89;77.34;98014.28;4917263;28;106322;-83
2021/01/20 08:00:45;;;;;;;2.53;2.23;;;;;;;4.08;76.90;98008.84;4917801;28;103653;-82
2021/01/20 08:03:12;;;;;;;3.03;2.70;;;;;;;3.99;76.87;98010.22;4898783;28;103611;-82
2021/01/20 08:05:42;;;;;;;6.20;2.80;;;;;;;4.06;77.16;98006.34;4905464;28;103151;-82
2021/01/20 08:08:12;;;;;;;4.20;2.90;;;;;;;4.22;76.99;98011.50;4915849;28;103927;-83
2021/01/20 08:10:41;;;;;;;4.40;3.27;;;;;;;4.01;76.38;98007.53;4920996;28;103388;-83
2021/01/20 08:13:14;;;;;;;4.50;3.20;;;;;;;4.02;76.14;98020.50;4901840;28;103228;-83
2021/01/20 08:15:44;;;;;;;8.43;4.37;;;;;;;3.87;77.67;98016.16;4919053;28;103071;-83
2021/01/20 08:18:14;;;;;;;6.20;4.03;;;;;;;3.95;77.00;98013.94;4900450;28;106759;-83
2021/01/20 08:20:42;;;;;;;9.87;4.33;;;;;;;3.96;76.65;98014.75;4910548;28;104473;-83
2021/01/20 08:23:29;;;;;;;9.57;4.03;;;;;;;3.96;77.40;98015.59;4904889;28;103386;-83
2021/01/20 08:26:07;;;;;;;5.23;4.03;;;;;;;3.88;77.47;98012.59;4904887;28;103225;-84
2021/01/20 08:28:34;;;;;;;6.73;3.80;;;;;;;3.97;77.18;98014.69;4936427;28;105222;-83
2021/01/20 08:31:21;;;;;;;5.83;4.40;;;;;;;4.00;76.36;98006.69;4920578;28;106011;-83
2021/01/20 08:33:49;;;;;;;5.90;3.93;;;;;;;3.96;76.52;98010.38;4928997;28;104367;-83
2021/01/20 08:36:24;;;;;;;6.23;3.80;;;;;;;4.06;77.43;98005.50;4920422;28;103014;-84
2021/01/20 08:39:07;;;;;;;5.73;3.80;;;;;;;4.21;75.87;98014.22;4920893;28;107308;-82
2021/01/20 08:41:35;;;;;;;6.47;4.03;;;;;;;4.22;76.02;98008.06;4922171;28;103224;-82
2021/01/20 08:44:15;;;;;;;5.87;3.67;;;;;;;4.43;75.64;98012.91;4922443;28;103275;-74
2021/01/20 08:46:52;;;;;;;4.00;3.00;;;;;;;4.51;76.53;98000.22;4917844;28;104345;-79
2021/01/20 08:49:20;;;;;;;8.67;4.23;;;;;;;4.62;76.43;97995.19;4918915;28;105311;-80
2021/01/20 08:51:56;;;;;;;7.40;3.00;;;;;;;4.70;76.27;97997.34;4899284;28;105943;-79
2021/01/20 08:54:24;;;;;;;3.33;2.80;;;;;;;4.78;76.90;97997.72;4915305;28;103624;-79
2021/01/20 08:56:51;;;;;;;5.87;2.87;;;;;;;4.86;76.44;97992.84;4922481;28;106994;-81
2021/01/20 08:59:18;;;;;;;3.33;2.40;;;;;;;4.92;75.75;97987.25;4917545;28;104358;-80
2021/01/20 09:01:47;;;;;;;2.87;2.10;;;;;;;5.01;74.53;97986.72;4923027;28;103545;-80
2021/01/20 09:04:14;;;;;;;5.40;2.90;;;;;;;5.01;74.35;97986.72;4920852;28;103184;-80
2021/01/20 09:06:41;;;;;;;5.73;2.63;;;;;;;5.01;74.23;97976.22;4920376;28;104854;-80
2021/01/20 09:09:09;;;;;;;2.43;1.83;;;;;;;5.12;74.37;97978.19;4921153;28;105427;-81
2021/01/20 09:11:39;;;;;;;3.43;2.57;;;;;;;5.19;73.85;97980.31;4922701;28;104803;-80
2021/01/20 09:14:07;;;;;;;5.10;2.70;;;;;;;5.19;73.62;97972.47;4924307;28;103034;-80
2021/01/20 09:16:34;;;;;;;5.97;3.30;;;;;;;5.20;74.14;97976.78;4923117;28;104539;-80
2021/01/20 09:19:03;;;;;;;4.60;3.53;;;;;;;5.19;73.32;97971.66;4921725;28;104056;-81
2021/01/20 09:21:30;;;;;;;6.30;3.30;;;;;;;5.16;73.45;97970.06;4920960;28;104119;-80
2021/01/20 09:23:58;;;;;;;8.67;3.60;;;;;;;5.19;73.47;97969.84;4921240;28;103402;-80
2021/01/20 09:26:25;;;;;;;4.33;3.03;;;;;;;5.16;73.23;97969.22;4923636;28;103091;-80
2021/01/20 09:28:53;;;;;;;8.10;3.43;;;;;;;5.18;73.69;97965.56;4919956;28;104208;-80
2021/01/20 09:31:20;;;;;;;6.37;3.80;;;;;;;5.14;73.88;97961.44;4921823;28;104165;-80
2021/01/20 09:33:47;;;;;;;4.57;3.60;;;;;;;5.11;72.97;97966.03;4918802;28;104243;-81
2021/01/20 09:36:16;;;;;;;5.07;3.40;;;;;;;5.23;72.89;97970.50;4924203;28;102642;-92
2021/01/20 09:38:43;;;;;;;5.37;3.50;;;;;;;5.20;72.62;97960.22;4921518;28;104028;-79
2021/01/20 09:41:10;;;;;;;4.57;3.03;;;;;;;5.40;72.44;97959.81;4922360;28;103966;-79
2021/01/20 09:43:38;;;;;;;8.20;4.17;;;;;;;5.39;72.28;97960.75;4924668;28;103806;-84
2021/01/20 09:46:05;;;;;;;5.33;3.13;;;;;;;5.43;72.02;97964.03;4920996;28;103434;-84
2021/01/20 09:48:32;;;;;;;4.40;3.07;;;;;;;5.55;72.39;97960.63;4921009;28;104144;-85
2021/01/20 09:51:00;;;;;;;6.40;4.13;;;;;;;5.45;71.71;97954.28;4922188;28;104491;-84
2021/01/20 09:53:28;;;;;;;5.20;3.43;;;;;;;5.50;71.74;97960.91;4919823;28;102967;-84
2021/01/20 09:55:55;;;;;;;8.47;3.93;;;;;;;5.49;71.32;97950.53;4919246;28;104304;-86
2021/01/20 09:58:22;;;;;;;7.60;3.73;;;;;;;5.59;71.19;97951.63;4921272;28;104431;-84
2021/01/20 10:00:50;;;;;;;3.20;2.73;;;;;;;5.87;70.43;97940.25;4921544;28;103652;-84
2021/01/20 10:03:17;;;;;;;5.53;3.80;;;;;;;6.00;70.93;97949.00;4921753;28;102854;-84
2021/01/20 10:05:45;;;;;;;8.03;4.13;;;;;;;5.90;70.26;97930.38;4922542;28;103295;-84
2021/01/20 10:08:12;;;;;;;7.83;4.50;;;;;;;5.95;70.73;97928.31;4922034;28;104472;-83
2021/01/20 10:10:40;;;;;;;7.33;3.70;;;;;;;5.95;70.85;97927.47;4923063;28;103743;-84
2021/01/20 10:13:08;;;;;;;6.23;3.90;;;;;;;5.98;71.09;97933.34;4923047;28;102905;-84
2021/01/20 10:15:38;;;;;;;6.27;4.00;;;;;;;6.06;71.00;97932.88;4915255;28;103960;-84
2021/01/20 10:18:06;;;;;;;8.67;4.83;;;;;;;6.04;70.28;97926.84;4921169;28;103796;-83
2021/01/20 10:20:33;;;;;;;8.13;5.83;;;;;;;6.04;70.62;97922.47;4916197;28;104755;-84
2021/01/20 10:23:01;;;;;;;10.53;5.43;;;;;;;6.08;71.09;97920.47;4923542;28;103009;-83
2021/01/20 10:25:32;;;;;;;7.97;4.23;;;;;;;6.12;70.94;97919.34;4913775;28;104013;-84
2021/01/20 10:28:01;;;;;;;8.17;5.47;;;;;;;6.16;69.73;97908.53;4922040;28;104469;-84
2021/01/20 10:30:29;;;;;;;9.30;5.50;;;;;;;6.12;69.80;97901.00;4925424;28;103692;-85
2021/01/20 10:32:56;;;;;;;10.03;5.47;;;;;;;6.15;70.03;97909.47;4924236;28;103234;-84
2021/01/20 10:35:23;;;;;;;9.70;5.20;;;;;;;6.21;70.02;97903.81;4925246;28;102883;-84
2021/01/20 10:37:51;;;;;;;11.40;5.67;;;;;;;5.91;69.95;97900.63;4925685;28;104024;-84
2021/01/20 10:40:18;;;;;;;8.43;5.00;;;;;;;6.32;70.07;97895.22;4926911;28;103991;-84
2021/01/20 10:42:46;;;;;;;7.27;5.80;;;;;;;6.34;69.87;97891.53;4924846;28;103210;-84
2021/01/20 10:45:15;;;;;;;9.93;5.80;;;;;;;6.38;69.46;97882.53;4924994;28;103380;-85
2021/01/20 10:47:42;;;;;;;10.67;5.60;;;;;;;6.24;70.05;97882.63;4925603;28;103003;-84
2021/01/20 10:50:11;;;;;;;7.77;4.70;;;;;;;6.19;70.75;97879.47;4926003;28;103855;-83
2021/01/20 10:52:38;;;;;;;7.07;4.07;;;;;;;6.32;70.71;97869.00;4925525;28;103245;-79
2021/01/20 10:55:07;;;;;;;9.87;5.27;;;;;;;6.30;70.13;97866.47;4923063;28;102955;-83
2021/01/20 10:57:35;;;;;;;7.90;4.93;;;;;;;6.36;69.68;97871.31;4940954;28;103790;-86
2021/01/20 11:00:02;;;;;;;7.07;4.97;;;;;;;6.25;69.81;97857.25;4925273;28;104194;-85
2021/01/20 11:02:32;;;;;;;7.00;5.33;;;;;;;6.26;69.64;97854.50;4923320;28;103228;-87
2021/01/20 11:04:59;;;;;;;7.30;4.87;;;;;;;6.35;69.81;97847.78;4924311;28;103113;-87
2021/01/20 11:07:27;;;;;;;9.87;4.77;;;;;;;6.33;69.71;97844.44;4920107;28;105269;-87
2021/01/20 11:09:56;;;;;;;13.47;5.27;;;;;;;6.39;69.12;97834.38;4924368;28;104167;-86
2021/01/20 11:12:23;;;;;;;6.33;4.50;;;;;;;6.34;68.64;97825.97;4924704;28;103286;-81
2021/01/20 11:14:51;;;;;;;8.87;4.97;;;;;;;6.47;68.83;97825.13;4924599;28;103003;-84
2021/01/20 11:17:18;;;;;;;9.73;5.20;;;;;;;6.40;69.05;97824.69;4924659;28;104804;-85
2021/01/20 11:19:46;;;;;;;8.90;5.17;;;;;;;6.43;68.58;97821.06;4925068;28;103808;-80
2021/01/20 11:22:13;;;;;;;12.10;5.27;;;;;;;6.50;68.42;97820.50;4923900;28;103259;-81
2021/01/20 11:24:41;;;;;;;9.20;4.20;;;;;;;6.46;68.16;97818.22;4917323;28;103485;-80
2021/01/20 11:27:12;;;;;;;7.23;4.67;;;;;;;6.66;68.26;97815.84;4923470;28;103970;-81
2021/01/20 11:29:39;;;;;;;9.37;4.60;;;;;;;6.71;67.68;97807.69;4921833;28;103914;-78
2021/01/20 11:32:06;;;;;;;7.07;3.93;;;;;;;6.58;68.27;97804.22;4923486;28;102974;-79
2021/01/20 11:34:33;;;;;;;5.57;4.23;;;;;;;6.60;68.74;97802.31;4924068;28;103700;-79
2021/01/20 11:37:02;;;;;;;7.23;4.57;;;;;;;6.69;68.25;97801.69;4923661;28;104657;-83
2021/01/20 11:39:29;;;;;;;8.73;3.67;;;;;;;6.74;67.28;97791.69;4921962;28;104161;-81
2021/01/20 11:41:56;;;;;;;7.10;4.03;;;;;;;6.71;67.79;97791.94;4921577;28;102998;-83
2021/01/20 11:44:23;;;;;;;6.07;5.37;;;;;;;6.74;68.09;97791.69;4922808;28;103040;-78
2021/01/20 11:46:50;;;;;;;7.90;3.40;;;;;;;6.91;66.34;97789.53;4920441;28;103779;-77
2021/01/20 11:49:18;;;;;;;5.40;2.40;;;;;;;7.03;64.05;97782.56;4921597;28;105177;-78